sensor_id;sensor_type;location;lat;lon;timestamp;pressure;altitude;pressure_sealevel;temperature;humidity
53506;BME280;39388;50.936;6.848;2023-01-19T00:01:54;99713.75;;;2.15;78.84
53506;BME280;39388;50.936;6.848;2023-01-19T00:04:24;99697.56;;;2.07;78.87
53506;BME280;39388;50.936;6.848;2023-01-19T00:06:54;99700.16;;;2.12;78.99
53506;BME280;39388;50.936;6.848;2023-01-19T00:09:25;99700.16;;;2.12;78.96
53506;BME280;39388;50.936;6.848;2023-01-19T00:11:57;99697.56;;;2.07;79.16
53506;BME280;39388;50.936;6.848;2023-01-19T00:14:27;99711.16;;;2.12;79.01
53506;BME280;39388;50.936;6.848;2023-01-19T00:16:57;99700.97;;;2.09;79.33
53506;BME280;39388;50.936;6.848;2023-01-19T00:19:28;99706.97;;;2.14;78.96
53506;BME280;39388;50.936;6.848;2023-01-19T00:21:58;99700.25;;;2.20;78.77
53506;BME280;39388;50.936;6.848;2023-01-19T00:24:29;99691.75;;;2.19;79.25
53506;BME280;39388;50.936;6.848;2023-01-19T00:27:00;99708.03;;;2.32;79.09
53506;BME280;39388;50.936;6.848;2023-01-19T00:29:36;99707.25;;;2.36;78.80
53506;BME280;39388;50.936;6.848;2023-01-19T00:32:07;99709.00;;;2.42;78.57
53506;BME280;39388;50.936;6.848;2023-01-19T00:34:37;99714.16;;;2.46;78.33
53506;BME280;39388;50.936;6.848;2023-01-19T00:37:11;99715.03;;;2.47;78.35
53506;BME280;39388;50.936;6.848;2023-01-19T00:39:42;99705.72;;;2.52;78.68
53506;BME280;39388;50.936;6.848;2023-01-19T00:42:12;99710.03;;;2.58;78.28
53506;BME280;39388;50.936;6.848;2023-01-19T00:45:01;99709.22;;;2.60;78.25
53506;BME280;39388;50.936;6.848;2023-01-19T00:47:32;99705.91;;;2.66;77.90
53506;BME280;39388;50.936;6.848;2023-01-19T00:50:02;99703.34;;;2.68;77.86
53506;BME280;39388;50.936;6.848;2023-01-19T00:52:33;99700.81;;;2.69;78.21
53506;BME280;39388;50.936;6.848;2023-01-19T00:55:04;99686.34;;;2.64;78.12
53506;BME280;39388;50.936;6.848;2023-01-19T00:57:35;99684.63;;;2.61;78.01
53506;BME280;39388;50.936;6.848;2023-01-19T01:00:09;99699.97;;;2.69;78.03
53506;BME280;39388;50.936;6.848;2023-01-19T01:02:42;99705.06;;;2.69;77.95
53506;BME280;39388;50.936;6.848;2023-01-19T01:05:13;99700.78;;;2.63;77.78
53506;BME280;39388;50.936;6.848;2023-01-19T01:07:43;99703.34;;;2.68;77.84
53506;BME280;39388;50.936;6.848;2023-01-19T01:10:23;99707.53;;;2.62;78.04
53506;BME280;39388;50.936;6.848;2023-01-19T01:12:55;99702.41;;;2.56;78.30
53506;BME280;39388;50.936;6.848;2023-01-19T01:15:26;99704.94;;;2.58;77.64
53506;BME280;39388;50.936;6.848;2023-01-19T01:17:56;99715.94;;;2.55;77.95
53506;BME280;39388;50.936;6.848;2023-01-19T01:20:30;99715.13;;;2.56;78.15
53506;BME280;39388;50.936;6.848;2023-01-19T01:23:03;99695.50;;;2.47;77.98
53506;BME280;39388;50.936;6.848;2023-01-19T01:25:34;99685.28;;;2.44;78.41
53506;BME280;39388;50.936;6.848;2023-01-19T01:28:07;99709.09;;;2.50;77.67
53506;BME280;39388;50.936;6.848;2023-01-19T01:30:37;99711.59;;;2.46;78.04
53506;BME280;39388;50.936;6.848;2023-01-19T01:33:10;99718.31;;;2.38;77.65
53506;BME280;39388;50.936;6.848;2023-01-19T01:35:43;99718.22;;;2.34;78.15
53506;BME280;39388;50.936;6.848;2023-01-19T01:38:13;99723.31;;;2.34;77.92
53506;BME280;39388;50.936;6.848;2023-01-19T01:40:44;99737.84;;;2.42;78.07
53506;BME280;39388;50.936;6.848;2023-01-19T01:43:16;99737.97;;;2.52;78.04
53506;BME280;39388;50.936;6.848;2023-01-19T01:45:47;99739.75;;;2.59;77.75
53506;BME280;39388;50.936;6.848;2023-01-19T01:48:22;99741.50;;;2.65;78.12
53506;BME280;39388;50.936;6.848;2023-01-19T01:50:59;99743.28;;;2.72;77.63
53506;BME280;39388;50.936;6.848;2023-01-19T01:54:27;99746.75;;;2.79;77.56
53506;BME280;39388;50.936;6.848;2023-01-19T01:57:01;99723.81;;;2.75;77.34
53506;BME280;39388;50.936;6.848;2023-01-19T01:59:36;99719.53;;;2.73;77.45
53506;BME280;39388;50.936;6.848;2023-01-19T02:02:16;99723.72;;;2.69;77.41
53506;BME280;39388;50.936;6.848;2023-01-19T02:05:09;99722.00;;;2.67;77.33
53506;BME280;39388;50.936;6.848;2023-01-19T02:10:40;99722.00;;;2.67;77.61
53506;BME280;39388;50.936;6.848;2023-01-19T02:13:30;99720.28;;;2.64;77.28
53506;BME280;39388;50.936;6.848;2023-01-19T02:16:05;99720.22;;;2.58;77.69
53506;BME280;39388;50.936;6.848;2023-01-19T02:18:36;99715.06;;;2.52;77.81
53506;BME280;39388;50.936;6.848;2023-01-19T02:23:56;99711.56;;;2.42;77.47
53506;BME280;39388;50.936;6.848;2023-01-19T02:26:37;99712.38;;;2.39;77.72
53506;BME280;39388;50.936;6.848;2023-01-19T02:29:11;99720.03;;;2.41;77.77
53506;BME280;39388;50.936;6.848;2023-01-19T02:31:42;99716.59;;;2.39;77.78
53506;BME280;39388;50.936;6.848;2023-01-19T02:34:16;99701.28;;;2.33;77.96
53506;BME280;39388;50.936;6.848;2023-01-19T02:36:57;99712.31;;;2.35;77.77
53506;BME280;39388;50.936;6.848;2023-01-19T02:39:35;99691.84;;;2.27;77.54
53506;BME280;39388;50.936;6.848;2023-01-19T02:44:49;99693.47;;;2.19;77.59
53506;BME280;39388;50.936;6.848;2023-01-19T02:47:22;99693.34;;;2.09;77.99
53506;BME280;39388;50.936;6.848;2023-01-19T02:49:54;99703.53;;;2.11;78.43
53506;BME280;39388;50.936;6.848;2023-01-19T02:52:25;99703.63;;;2.19;78.29
53506;BME280;39388;50.936;6.848;2023-01-19T02:55:16;99709.53;;;2.16;77.98
53506;BME280;39388;50.936;6.848;2023-01-19T03:01:31;99718.84;;;2.15;78.21
53506;BME280;39388;50.936;6.848;2023-01-19T03:07:12;99712.03;;;2.11;77.89
53506;BME280;39388;50.936;6.848;2023-01-19T03:09:58;99711.94;;;2.07;77.79
53506;BME280;39388;50.936;6.848;2023-01-19T03:12:41;99723.00;;;2.07;78.33
53506;BME280;39388;50.936;6.848;2023-01-19T03:15:27;99719.56;;;2.05;78.17
53506;BME280;39388;50.936;6.848;2023-01-19T03:18:01;99709.28;;;1.96;78.07
53506;BME280;39388;50.936;6.848;2023-01-19T03:20:35;99713.53;;;1.97;78.57
53506;BME280;39388;50.936;6.848;2023-01-19T03:23:10;99726.25;;;1.98;78.32
53506;BME280;39388;50.936;6.848;2023-01-19T03:25:44;99724.53;;;1.96;78.21
53506;BME280;39388;50.936;6.848;2023-01-19T03:28:18;99721.13;;;1.94;78.10
53506;BME280;39388;50.936;6.848;2023-01-19T03:30:56;99724.50;;;1.93;78.50
53506;BME280;39388;50.936;6.848;2023-01-19T03:33:30;99720.22;;;1.92;78.32
53506;BME280;39388;50.936;6.848;2023-01-19T03:36:05;99712.56;;;1.90;78.74
53506;BME280;39388;50.936;6.848;2023-01-19T03:38:39;99710.84;;;1.88;78.17
53506;BME280;39388;50.936;6.848;2023-01-19T03:41:14;99709.13;;;1.85;78.56
53506;BME280;39388;50.936;6.848;2023-01-19T03:43:47;99722.78;;;1.92;78.86
53506;BME280;39388;50.936;6.848;2023-01-19T03:46:20;99718.63;;;1.97;78.67
53506;BME280;39388;50.936;6.848;2023-01-19T03:48:51;99717.81;;;2.01;78.24
53506;BME280;39388;50.936;6.848;2023-01-19T03:51:22;99716.19;;;2.08;78.46
53506;BME280;39388;50.936;6.848;2023-01-19T03:53:53;99717.13;;;2.13;78.29
53506;BME280;39388;50.936;6.848;2023-01-19T03:56:24;99728.25;;;2.21;78.17
53506;BME280;39388;50.936;6.848;2023-01-19T03:58:54;99726.56;;;2.22;78.02
53506;BME280;39388;50.936;6.848;2023-01-19T04:01:25;99725.75;;;2.23;78.02
53506;BME280;39388;50.936;6.848;2023-01-19T04:03:55;99735.91;;;2.24;78.45
53506;BME280;39388;50.936;6.848;2023-01-19T04:06:25;99720.66;;;2.23;78.49
53506;BME280;39388;50.936;6.848;2023-01-19T04:08:57;99726.56;;;2.23;78.56
53506;BME280;39388;50.936;6.848;2023-01-19T04:11:27;99718.16;;;2.27;78.23
53506;BME280;39388;50.936;6.848;2023-01-19T04:13:58;99721.69;;;2.39;78.40
53506;BME280;39388;50.936;6.848;2023-01-19T04:16:28;99717.47;;;2.41;78.24
53506;BME280;39388;50.936;6.848;2023-01-19T04:18:58;99723.44;;;2.43;78.16
53506;BME280;39388;50.936;6.848;2023-01-19T04:21:29;99718.34;;;2.43;78.08
53506;BME280;39388;50.936;6.848;2023-01-19T04:23:59;99722.66;;;2.47;78.26
53506;BME280;39388;50.936;6.848;2023-01-19T04:26:30;99712.41;;;2.42;78.06
53506;BME280;39388;50.936;6.848;2023-01-19T04:29:00;99717.63;;;2.52;77.57
53506;BME280;39388;50.936;6.848;2023-01-19T04:31:30;99717.72;;;2.59;78.24
53506;BME280;39388;50.936;6.848;2023-01-19T04:34:02;99726.22;;;2.65;77.47
53506;BME280;39388;50.936;6.848;2023-01-19T04:36:33;99725.47;;;2.72;77.39
53506;BME280;39388;50.936;6.848;2023-01-19T04:39:03;99708.44;;;2.69;77.27
53506;BME280;39388;50.936;6.848;2023-01-19T04:41:34;99723.91;;;2.85;77.22
53506;BME280;39388;50.936;6.848;2023-01-19T04:44:04;99723.97;;;2.91;76.63
53506;BME280;39388;50.936;6.848;2023-01-19T04:46:35;99726.56;;;2.96;77.01
53506;BME280;39388;50.936;6.848;2023-01-19T04:49:05;99731.69;;;2.99;76.88
53506;BME280;39388;50.936;6.848;2023-01-19T04:51:35;99729.16;;;2.99;76.96
53506;BME280;39388;50.936;6.848;2023-01-19T04:54:06;99723.25;;;3.03;76.67
53506;BME280;39388;50.936;6.848;2023-01-19T04:56:38;99732.66;;;3.10;76.99
53506;BME280;39388;50.936;6.848;2023-01-19T04:59:09;99722.41;;;3.07;76.39
53506;BME280;39388;50.936;6.848;2023-01-19T05:01:40;99721.59;;;3.06;76.48
53506;BME280;39388;50.936;6.848;2023-01-19T05:04:10;99724.13;;;3.08;76.54
53506;BME280;39388;50.936;6.848;2023-01-19T05:06:41;99735.22;;;3.12;76.57
53506;BME280;39388;50.936;6.848;2023-01-19T05:09:11;99740.31;;;3.13;76.81
53506;BME280;39388;50.936;6.848;2023-01-19T05:11:44;99736.09;;;3.15;76.98
53506;BME280;39388;50.936;6.848;2023-01-19T05:14:14;99737.81;;;3.18;76.10
53506;BME280;39388;50.936;6.848;2023-01-19T05:16:44;99741.22;;;3.21;76.30
53506;BME280;39388;50.936;6.848;2023-01-19T05:19:15;99742.06;;;3.19;76.16
53506;BME280;39388;50.936;6.848;2023-01-19T05:21:45;99743.78;;;3.21;76.27
53506;BME280;39388;50.936;6.848;2023-01-19T05:24:16;99742.97;;;3.24;76.74
53506;BME280;39388;50.936;6.848;2023-01-19T05:26:47;99749.75;;;3.22;76.83
53506;BME280;39388;50.936;6.848;2023-01-19T05:29:17;99720.75;;;3.09;76.46
53506;BME280;39388;50.936;6.848;2023-01-19T05:31:48;99748.88;;;3.21;76.97
53506;BME280;39388;50.936;6.848;2023-01-19T05:34:18;99757.38;;;3.22;77.28
53506;BME280;39388;50.936;6.848;2023-01-19T05:36:49;99744.66;;;3.22;76.97
53506;BME280;39388;50.936;6.848;2023-01-19T05:39:20;99754.00;;;3.25;77.45
53506;BME280;39388;50.936;6.848;2023-01-19T05:41:50;99753.13;;;3.21;77.45
53506;BME280;39388;50.936;6.848;2023-01-19T05:44:20;99742.91;;;3.16;78.19
53506;BME280;39388;50.936;6.848;2023-01-19T05:46:51;99759.94;;;3.23;78.00
53506;BME280;39388;50.936;6.848;2023-01-19T05:49:21;99760.78;;;3.22;77.88
53506;BME280;39388;50.936;6.848;2023-01-19T05:51:52;99765.91;;;3.24;78.37
53506;BME280;39388;50.936;6.848;2023-01-19T05:54:22;99768.41;;;3.22;77.98
53506;BME280;39388;50.936;6.848;2023-01-19T05:56:52;99759.03;;;3.17;78.62
53506;BME280;39388;50.936;6.848;2023-01-19T05:59:23;99767.50;;;3.14;79.15
53506;BME280;39388;50.936;6.848;2023-01-19T06:01:53;99755.56;;;3.08;79.45
53506;BME280;39388;50.936;6.848;2023-01-19T06:04:24;99759.75;;;3.03;79.68
53506;BME280;39388;50.936;6.848;2023-01-19T06:06:55;99767.34;;;2.97;79.92
53506;BME280;39388;50.936;6.848;2023-01-19T06:09:25;99748.50;;;2.84;80.12
53506;BME280;39388;50.936;6.848;2023-01-19T06:11:56;99756.16;;;2.84;80.71
53506;BME280;39388;50.936;6.848;2023-01-19T06:14:28;99760.38;;;2.82;80.95
53506;BME280;39388;50.936;6.848;2023-01-19T06:16:58;99759.50;;;2.79;80.95
53506;BME280;39388;50.936;6.848;2023-01-19T06:19:29;99762.00;;;2.75;81.05
53506;BME280;39388;50.936;6.848;2023-01-19T06:21:59;99746.59;;;2.65;81.44
53506;BME280;39388;50.936;6.848;2023-01-19T06:24:30;99759.34;;;2.68;81.86
53506;BME280;39388;50.936;6.848;2023-01-19T06:27:00;99761.03;;;2.66;81.62
53506;BME280;39388;50.936;6.848;2023-01-19T06:29:31;99764.38;;;2.61;82.06
53506;BME280;39388;50.936;6.848;2023-01-19T06:32:01;99775.38;;;2.59;82.34
53506;BME280;39388;50.936;6.848;2023-01-19T06:34:32;99781.28;;;2.56;82.33
53506;BME280;39388;50.936;6.848;2023-01-19T06:37:02;99784.66;;;2.57;82.48
53506;BME280;39388;50.936;6.848;2023-01-19T06:39:33;99789.75;;;2.55;82.58
53506;BME280;39388;50.936;6.848;2023-01-19T06:42:03;99783.78;;;2.52;82.77
53506;BME280;39388;50.936;6.848;2023-01-19T06:44:33;99788.81;;;2.50;82.92
53506;BME280;39388;50.936;6.848;2023-01-19T06:47:04;99788.78;;;2.45;83.33
53506;BME280;39388;50.936;6.848;2023-01-19T06:49:34;99804.97;;;2.52;82.94
53506;BME280;39388;50.936;6.848;2023-01-19T06:52:04;99794.75;;;2.49;82.75
53506;BME280;39388;50.936;6.848;2023-01-19T06:54:35;99796.44;;;2.49;83.32
53506;BME280;39388;50.936;6.848;2023-01-19T06:57:05;99800.66;;;2.46;83.68
53506;BME280;39388;50.936;6.848;2023-01-19T06:59:35;99798.06;;;2.43;83.63
53506;BME280;39388;50.936;6.848;2023-01-19T07:02:06;99812.53;;;2.46;83.79
53506;BME280;39388;50.936;6.848;2023-01-19T07:04:36;99819.34;;;2.49;83.79
53506;BME280;39388;50.936;6.848;2023-01-19T07:07:07;99815.91;;;2.45;83.99
53506;BME280;39388;50.936;6.848;2023-01-19T07:09:37;99811.63;;;2.42;83.90
53506;BME280;39388;50.936;6.848;2023-01-19T07:12:07;99829.53;;;2.50;83.56
53506;BME280;39388;50.936;6.848;2023-01-19T07:14:38;99828.72;;;2.51;83.63
53506;BME280;39388;50.936;6.848;2023-01-19T07:17:09;99826.16;;;2.51;84.14
53506;BME280;39388;50.936;6.848;2023-01-19T07:19:39;99832.06;;;2.47;83.80
53506;BME280;39388;50.936;6.848;2023-01-19T07:22:10;99827.00;;;2.49;84.17
53506;BME280;39388;50.936;6.848;2023-01-19T07:24:41;99836.38;;;2.53;84.31
53506;BME280;39388;50.936;6.848;2023-01-19T07:27:11;99834.66;;;2.52;84.35
53506;BME280;39388;50.936;6.848;2023-01-19T07:29:42;99838.94;;;2.53;83.99
53506;BME280;39388;50.936;6.848;2023-01-19T07:32:12;99845.72;;;2.54;84.40
53506;BME280;39388;50.936;6.848;2023-01-19T07:34:43;99826.13;;;2.48;84.83
53506;BME280;39388;50.936;6.848;2023-01-19T07:37:14;99841.47;;;2.53;84.65
53506;BME280;39388;50.936;6.848;2023-01-19T07:39:45;99833.78;;;2.51;85.24
53506;BME280;39388;50.936;6.848;2023-01-19T07:42:15;99855.13;;;2.61;85.32
53506;BME280;39388;50.936;6.848;2023-01-19T07:44:45;99856.03;;;2.65;85.12
53506;BME280;39388;50.936;6.848;2023-01-19T07:47:16;99859.50;;;2.68;85.68
53506;BME280;39388;50.936;6.848;2023-01-19T07:49:46;99850.16;;;2.67;85.41
53506;BME280;39388;50.936;6.848;2023-01-19T07:52:16;99860.34;;;2.70;85.39
53506;BME280;39388;50.936;6.848;2023-01-19T07:54:47;99841.56;;;2.60;85.55
53506;BME280;39388;50.936;6.848;2023-01-19T07:57:20;99863.78;;;2.72;85.16
53506;BME280;39388;50.936;6.848;2023-01-19T07:59:50;99862.88;;;2.70;85.17
53506;BME280;39388;50.936;6.848;2023-01-19T08:02:20;99847.56;;;2.66;85.08
53506;BME280;39388;50.936;6.848;2023-01-19T08:04:51;99867.25;;;2.77;85.46
53506;BME280;39388;50.936;6.848;2023-01-19T08:07:21;99855.34;;;2.75;85.41
53506;BME280;39388;50.936;6.848;2023-01-19T08:09:52;99866.41;;;2.80;85.59
53506;BME280;39388;50.936;6.848;2023-01-19T08:12:22;99850.16;;;2.70;85.61
53506;BME280;39388;50.936;6.848;2023-01-19T08:14:53;99875.88;;;2.87;85.25
53506;BME280;39388;50.936;6.848;2023-01-19T08:17:23;99875.00;;;2.87;85.18
53506;BME280;39388;50.936;6.848;2023-01-19T08:19:53;99874.09;;;2.83;85.50
53506;BME280;39388;50.936;6.848;2023-01-19T08:22:24;99881.84;;;2.89;85.03
53506;BME280;39388;50.936;6.848;2023-01-19T08:24:54;99892.91;;;2.93;85.06
53506;BME280;39388;50.936;6.848;2023-01-19T08:27:24;99900.56;;;2.95;85.32
53506;BME280;39388;50.936;6.848;2023-01-19T08:29:55;99898.88;;;2.95;85.06
53506;BME280;39388;50.936;6.848;2023-01-19T08:32:25;99896.34;;;2.95;84.81
53506;BME280;39388;50.936;6.848;2023-01-19T08:34:56;99895.47;;;2.93;85.04
53506;BME280;39388;50.936;6.848;2023-01-19T08:37:26;99918.47;;;3.01;85.06
53506;BME280;39388;50.936;6.848;2023-01-19T08:39:57;99914.28;;;3.04;84.98
53506;BME280;39388;50.936;6.848;2023-01-19T08:42:27;99911.72;;;3.04;84.92
53506;BME280;39388;50.936;6.848;2023-01-19T08:44:57;99924.56;;;3.11;84.96
53506;BME280;39388;50.936;6.848;2023-01-19T08:47:28;99929.66;;;3.12;84.99
53506;BME280;39388;50.936;6.848;2023-01-19T08:49:58;99931.38;;;3.13;84.53
53506;BME280;39388;50.936;6.848;2023-01-19T08:52:29;99927.16;;;3.17;84.99
53506;BME280;39388;50.936;6.848;2023-01-19T08:54:59;99923.78;;;3.19;84.84
53506;BME280;39388;50.936;6.848;2023-01-19T08:57:30;99932.31;;;3.21;84.69
53506;BME280;39388;50.936;6.848;2023-01-19T09:00:02;99943.41;;;3.27;84.62
53506;BME280;39388;50.936;6.848;2023-01-19T09:02:33;99945.13;;;3.28;84.72
53506;BME280;39388;50.936;6.848;2023-01-19T09:05:04;99940.03;;;3.29;84.49
53506;BME280;39388;50.936;6.848;2023-01-19T09:07:34;99945.13;;;3.29;84.81
53506;BME280;39388;50.936;6.848;2023-01-19T09:10:06;99943.44;;;3.28;84.64
53506;BME280;39388;50.936;6.848;2023-01-19T09:12:37;99944.28;;;3.29;84.50
53506;BME280;39388;50.936;6.848;2023-01-19T09:15:07;99943.47;;;3.31;84.71
53506;BME280;39388;50.936;6.848;2023-01-19T09:17:39;99952.88;;;3.35;84.55
53506;BME280;39388;50.936;6.848;2023-01-19T09:20:13;99946.06;;;3.34;85.39
53506;BME280;39388;50.936;6.848;2023-01-19T09:22:43;99952.97;;;3.45;84.99
53506;BME280;39388;50.936;6.848;2023-01-19T09:25:14;99951.34;;;3.51;84.94
53506;BME280;39388;50.936;6.848;2023-01-19T09:27:44;99955.66;;;3.57;84.22
53506;BME280;39388;50.936;6.848;2023-01-19T09:30:15;99948.00;;;3.56;85.04
53506;BME280;39388;50.936;6.848;2023-01-19T09:32:46;99952.31;;;3.60;84.61
53506;BME280;39388;50.936;6.848;2023-01-19T09:35:17;99956.63;;;3.67;84.52
53506;BME280;39388;50.936;6.848;2023-01-19T09:37:47;99953.22;;;3.66;84.51
53506;BME280;39388;50.936;6.848;2023-01-19T09:40:19;99952.34;;;3.64;84.97
53506;BME280;39388;50.936;6.848;2023-01-19T09:42:55;99971.13;;;3.71;84.45
53506;BME280;39388;50.936;6.848;2023-01-19T09:45:34;99976.31;;;3.79;84.25
53506;BME280;39388;50.936;6.848;2023-01-19T09:48:25;99980.56;;;3.81;84.27
53506;BME280;39388;50.936;6.848;2023-01-19T09:51:01;99980.56;;;3.81;84.47
53506;BME280;39388;50.936;6.848;2023-01-19T09:56:28;99992.50;;;3.84;83.84
53506;BME280;39388;50.936;6.848;2023-01-19T09:58:59;99981.31;;;3.73;84.28
53506;BME280;39388;50.936;6.848;2023-01-19T10:01:35;99995.75;;;3.71;84.15
53506;BME280;39388;50.936;6.848;2023-01-19T10:04:25;99993.09;;;3.60;84.52
53506;BME280;39388;50.936;6.848;2023-01-19T10:07:13;99993.88;;;3.56;84.45
53506;BME280;39388;50.936;6.848;2023-01-19T10:12:56;100001.56;;;3.59;84.56
53506;BME280;39388;50.936;6.848;2023-01-19T10:18:18;100009.19;;;3.57;84.33
53506;BME280;39388;50.936;6.848;2023-01-19T10:20:52;99994.72;;;3.53;84.53
53506;BME280;39388;50.936;6.848;2023-01-19T10:23:34;100002.41;;;3.58;84.81
53506;BME280;39388;50.936;6.848;2023-01-19T10:26:59;99999.91;;;3.62;84.26
53506;BME280;39388;50.936;6.848;2023-01-19T10:32:10;99995.69;;;3.64;84.35
53506;BME280;39388;50.936;6.848;2023-01-19T10:34:42;100005.16;;;3.75;84.76
53506;BME280;39388;50.936;6.848;2023-01-19T10:39:53;100019.78;;;3.91;84.18
53506;BME280;39388;50.936;6.848;2023-01-19T10:42:27;100019.00;;;3.98;84.39
53506;BME280;39388;50.936;6.848;2023-01-19T10:44:58;100005.50;;;4.04;84.39
53506;BME280;39388;50.936;6.848;2023-01-19T10:47:35;100002.09;;;4.07;83.78
53506;BME280;39388;50.936;6.848;2023-01-19T10:50:25;100008.13;;;4.15;83.86
53506;BME280;39388;50.936;6.848;2023-01-19T10:52:59;100002.19;;;4.16;83.79
53506;BME280;39388;50.936;6.848;2023-01-19T10:55:37;100013.34;;;4.27;83.41
53506;BME280;39388;50.936;6.848;2023-01-19T10:58:29;100001.41;;;4.25;83.35
53506;BME280;39388;50.936;6.848;2023-01-19T11:01:26;100003.06;;;4.17;83.28
53506;BME280;39388;50.936;6.848;2023-01-19T11:03:57;100008.19;;;4.23;83.13
53506;BME280;39388;50.936;6.848;2023-01-19T11:06:34;100011.63;;;4.23;83.31
53506;BME280;39388;50.936;6.848;2023-01-19T11:09:17;100019.31;;;4.28;83.88
53506;BME280;39388;50.936;6.848;2023-01-19T11:11:50;100020.22;;;4.33;83.23
53506;BME280;39388;50.936;6.848;2023-01-19T11:14:23;100018.50;;;4.34;83.29
53506;BME280;39388;50.936;6.848;2023-01-19T11:16:54;100022.81;;;4.41;83.74
53506;BME280;39388;50.936;6.848;2023-01-19T11:19:30;100012.69;;;4.47;83.21
53506;BME280;39388;50.936;6.848;2023-01-19T11:22:17;100017.00;;;4.54;83.15
53506;BME280;39388;50.936;6.848;2023-01-19T11:24:51;100018.69;;;4.54;83.06
53506;BME280;39388;50.936;6.848;2023-01-19T11:27:22;100014.50;;;4.59;82.82
53506;BME280;39388;50.936;6.848;2023-01-19T11:30:03;100014.53;;;4.64;82.59
53506;BME280;39388;50.936;6.848;2023-01-19T11:32:38;100014.53;;;4.65;82.55
53506;BME280;39388;50.936;6.848;2023-01-19T11:40:50;100021.56;;;4.96;81.87
53506;BME280;39388;50.936;6.848;2023-01-19T11:43:23;100021.56;;;4.99;82.11
53506;BME280;39388;50.936;6.848;2023-01-19T11:45:55;100015.69;;;5.04;82.15
53506;BME280;39388;50.936;6.848;2023-01-19T11:48:34;100021.69;;;5.16;81.84
53506;BME280;39388;50.936;6.848;2023-01-19T11:51:12;100024.31;;;5.24;82.15
53506;BME280;39388;50.936;6.848;2023-01-19T11:53:47;100018.38;;;5.29;81.39
53506;BME280;39388;50.936;6.848;2023-01-19T11:56:25;100023.50;;;5.35;82.47
53506;BME280;39388;50.936;6.848;2023-01-19T11:58:58;100030.38;;;5.43;81.14
53506;BME280;39388;50.936;6.848;2023-01-19T12:01:30;100026.97;;;5.45;80.83
53506;BME280;39388;50.936;6.848;2023-01-19T12:04:11;100012.44;;;5.36;81.51
53506;BME280;39388;50.936;6.848;2023-01-19T12:06:47;100028.66;;;5.43;81.27
53506;BME280;39388;50.936;6.848;2023-01-19T12:09:32;100034.59;;;5.41;81.07
53506;BME280;39388;50.936;6.848;2023-01-19T12:12:06;100024.34;;;5.33;81.45
53506;BME280;39388;50.936;6.848;2023-01-19T12:14:44;100035.41;;;5.30;81.38
53506;BME280;39388;50.936;6.848;2023-01-19T12:17:29;100033.69;;;5.28;81.08
53506;BME280;39388;50.936;6.848;2023-01-19T12:23:18;100028.69;;;5.45;80.67
53506;BME280;39388;50.936;6.848;2023-01-19T12:28:46;100022.72;;;5.50;80.35
53506;BME280;39388;50.936;6.848;2023-01-19T12:31:21;100024.44;;;5.58;80.54
53506;BME280;39388;50.936;6.848;2023-01-19T12:33:52;100024.44;;;5.53;80.24
53506;BME280;39388;50.936;6.848;2023-01-19T12:41:38;100037.16;;;5.42;80.53
53506;BME280;39388;50.936;6.848;2023-01-19T12:46:46;100015.09;;;5.58;79.48
53506;BME280;39388;50.936;6.848;2023-01-19T12:57:39;100021.91;;;5.62;79.15
53506;BME280;39388;50.936;6.848;2023-01-19T13:18:57;100037.47;;;6.44;77.56
53506;BME280;39388;50.936;6.848;2023-01-19T13:21:30;100039.22;;;6.59;77.37
53506;BME280;39388;50.936;6.848;2023-01-19T13:24:09;100037.50;;;6.65;77.17
53506;BME280;39388;50.936;6.848;2023-01-19T13:29:29;100045.19;;;6.71;76.81
53506;BME280;39388;50.936;6.848;2023-01-19T13:32:11;100051.19;;;6.73;76.78
53506;BME280;39388;50.936;6.848;2023-01-19T13:34:46;100045.19;;;6.60;76.34
53506;BME280;39388;50.936;6.848;2023-01-19T13:37:22;100058.84;;;6.59;76.57
53506;BME280;39388;50.936;6.848;2023-01-19T13:39:55;100053.72;;;6.59;76.35
53506;BME280;39388;50.936;6.848;2023-01-19T13:42:43;100052.84;;;6.57;75.96
53506;BME280;39388;50.936;6.848;2023-01-19T13:45:25;100053.72;;;6.57;75.93
53506;BME280;39388;50.936;6.848;2023-01-19T13:47:58;100057.16;;;6.52;75.69
53506;BME280;39388;50.936;6.848;2023-01-19T13:50:32;100055.41;;;6.43;75.65
53506;BME280;39388;50.936;6.848;2023-01-19T13:53:19;100046.88;;;6.33;76.17
53506;BME280;39388;50.936;6.848;2023-01-19T13:58:36;100062.19;;;6.16;75.82
53506;BME280;39388;50.936;6.848;2023-01-19T14:01:18;100048.50;;;5.98;76.41
53506;BME280;39388;50.936;6.848;2023-01-19T14:03:49;100054.44;;;5.88;76.24
53506;BME280;39388;50.936;6.848;2023-01-19T14:06:35;100062.91;;;5.72;76.53
53506;BME280;39388;50.936;6.848;2023-01-19T14:09:07;100067.94;;;5.62;76.59
53506;BME280;39388;50.936;6.848;2023-01-19T14:11:37;100070.50;;;5.55;76.65
53506;BME280;39388;50.936;6.848;2023-01-19T14:14:25;100073.88;;;5.50;77.00
53506;BME280;39388;50.936;6.848;2023-01-19T14:16:56;100078.16;;;5.51;77.24
53506;BME280;39388;50.936;6.848;2023-01-19T14:19:26;100067.03;;;5.49;77.47
53506;BME280;39388;50.936;6.848;2023-01-19T14:22:02;100076.41;;;5.49;76.86
53506;BME280;39388;50.936;6.848;2023-01-19T14:24:32;100066.13;;;5.38;76.92
53506;BME280;39388;50.936;6.848;2023-01-19T14:29:51;100084.06;;;5.49;77.33
53506;BME280;39388;50.936;6.848;2023-01-19T14:32:24;100078.97;;;5.49;77.48
53506;BME280;39388;50.936;6.848;2023-01-19T14:37:35;100079.81;;;5.48;77.51
53506;BME280;39388;50.936;6.848;2023-01-19T14:45:38;100097.72;;;5.49;76.55
53506;BME280;39388;50.936;6.848;2023-01-19T14:48:19;100090.03;;;5.48;77.25
53506;BME280;39388;50.936;6.848;2023-01-19T14:51:00;100082.34;;;5.43;77.34
53506;BME280;39388;50.936;6.848;2023-01-19T14:53:36;100084.91;;;5.43;77.25
53506;BME280;39388;50.936;6.848;2023-01-19T14:56:07;100089.13;;;5.41;77.21
53506;BME280;39388;50.936;6.848;2023-01-19T14:58:37;100089.13;;;5.33;77.27
53506;BME280;39388;50.936;6.848;2023-01-19T15:01:08;100093.38;;;5.36;76.48
53506;BME280;39388;50.936;6.848;2023-01-19T15:03:38;100095.09;;;5.38;76.90
53506;BME280;39388;50.936;6.848;2023-01-19T15:06:14;100101.09;;;5.42;77.31
53506;BME280;39388;50.936;6.848;2023-01-19T15:08:46;100101.13;;;5.47;77.59
53506;BME280;39388;50.936;6.848;2023-01-19T15:13:53;100108.81;;;5.47;77.30
53506;BME280;39388;50.936;6.848;2023-01-19T15:16:26;100108.75;;;5.41;77.09